Terminal Aerodrome Forecast
Issued by NWS

Home | Current Version | Previous Version | Text Only | Print | Product List | Glossary On
Versions: 1 2 3 4 5 6 7 8 9 10 11 12 13 14 15 16 17 18 19 20 21 22 23 24 25
785
FTUS43 KDLH 280525
TAFHYR
TAF
KHYR 280525Z 2806/2906 04005KT P6SM OVC005
      TEMPO 2806/2810 3SM BR SCT005 OVC060
     FM281000 00000KT 4SM BR SCT010 BKN060
      TEMPO 2810/2812 3/4SM BR BKN008
     FM281300 08007KT P6SM BKN070
     FM281800 06008KT P6SM SCT100=

USA.gov is the U.S. government's official web portal to all federal, state and local government web resources and services.